Time;durP1;ratioP1;P1;durP2;ratioP2;P2;SDS_P1;SDS_P2;PMS_P1;PMS_P2;Temp;Humidity;BMP_temperature;BMP_pressure;BME280_temperature;BME280_humidity;BME280_pressure;Samples;Min_cycle;Max_cycle;Signal;HPM_P1;HPM_P2
2022/06/27 00:00:29;;;;;;;6.95;3.83;;;;;;;;;;5114546;28;20032;-82
2022/06/27 00:02:56;;;;;;;6.10;3.72;;;;;;;;;;5114484;28;20034;-79
2022/06/27 00:05:22;;;;;;;4.35;3.95;;;;;;;;;;5114273;28;20028;-79
2022/06/27 00:07:48;;;;;;;7.00;4.25;;;;;;;;;;5114490;28;20040;-82
2022/06/27 00:10:14;;;;;;;9.52;4.40;;;;;;;;;;5114164;28;20035;-80
2022/06/27 00:12:41;;;;;;;7.28;4.57;;;;;;;;;;5114373;28;20453;-80
2022/06/27 00:15:08;;;;;;;6.40;4.03;;;;;;;;;;5113957;28;20020;-83
2022/06/27 00:17:34;;;;;;;5.10;4.05;;;;;;;;;;5114221;28;20038;-78
2022/06/27 00:20:00;;;;;;;4.80;4.10;;;;;;;;;;5114123;28;20055;-79
2022/06/27 00:22:27;;;;;;;6.40;4.25;;;;;;;;;;5113865;28;20024;-79
2022/06/27 00:24:53;;;;;;;7.57;4.20;;;;;;;;;;5113162;28;20027;-79
2022/06/27 00:27:19;;;;;;;7.38;4.75;;;;;;;;;;5112939;28;20085;-83
2022/06/27 00:29:46;;;;;;;8.30;4.18;;;;;;;;;;5113300;28;20031;-80
2022/06/27 00:32:12;;;;;;;8.15;4.20;;;;;;;;;;5113176;28;20031;-78
2022/06/27 00:34:38;;;;;;;7.90;4.45;;;;;;;;;;5110925;28;20047;-81
2022/06/27 00:37:05;;;;;;;5.88;3.95;;;;;;;;;;5107352;28;20050;-80
2022/06/27 00:39:31;;;;;;;9.05;4.80;;;;;;;;;;5113311;28;20062;-80
2022/06/27 00:41:57;;;;;;;5.53;4.40;;;;;;;;;;5113447;28;20051;-80
2022/06/27 00:44:33;;;;;;;6.10;4.10;;;;;;;;;;5113212;28;20032;-81
2022/06/27 00:46:59;;;;;;;6.35;4.28;;;;;;;;;;5113660;28;20031;-80
2022/06/27 00:49:26;;;;;;;6.65;4.60;;;;;;;;;;5113360;28;20019;-80
2022/06/27 00:51:52;;;;;;;6.35;5.25;;;;;;;;;;5112689;28;20482;-79
2022/06/27 00:54:18;;;;;;;6.45;4.25;;;;;;;;;;5113075;28;20028;-81
2022/06/27 00:56:45;;;;;;;6.85;4.60;;;;;;;;;;5113439;28;20031;-82
2022/06/27 00:59:11;;;;;;;6.43;4.70;;;;;;;;;;5113280;28;20069;-79
2022/06/27 01:01:37;;;;;;;7.38;4.85;;;;;;;;;;5113191;28;20024;-78
2022/06/27 01:04:03;;;;;;;8.63;5.03;;;;;;;;;;5113404;28;20104;-80
2022/06/27 01:06:29;;;;;;;7.15;4.97;;;;;;;;;;5113114;28;20023;-78
2022/06/27 01:08:55;;;;;;;7.32;5.05;;;;;;;;;;5113349;28;20028;-80
2022/06/27 01:11:22;;;;;;;6.68;5.05;;;;;;;;;;5112722;28;20035;-79
2022/06/27 01:13:48;;;;;;;5.32;4.57;;;;;;;;;;5113173;28;20077;-82
2022/06/27 01:16:14;;;;;;;9.18;5.38;;;;;;;;;;5112974;28;20028;-78
2022/06/27 01:18:41;;;;;;;6.20;4.75;;;;;;;;;;5113004;28;20028;-83
2022/06/27 01:21:07;;;;;;;7.22;4.40;;;;;;;;;;5112982;28;20028;-80
2022/06/27 01:23:35;;;;;;;5.82;5.10;;;;;;;;;;5112814;28;20458;-83
2022/06/27 01:26:01;;;;;;;6.05;4.82;;;;;;;;;;5094816;28;20028;-80
2022/06/27 01:28:27;;;;;;;7.03;4.68;;;;;;;;;;5112769;28;20020;-83
2022/06/27 01:30:53;;;;;;;6.03;4.90;;;;;;;;;;5112897;28;20961;-79
2022/06/27 01:33:19;;;;;;;6.53;4.88;;;;;;;;;;5112800;28;20024;-79
2022/06/27 01:35:46;;;;;;;8.07;4.78;;;;;;;;;;5112728;28;20052;-81
2022/06/27 01:38:12;;;;;;;5.38;4.88;;;;;;;;;;5112680;28;20077;-79
2022/06/27 01:40:38;;;;;;;6.38;5.25;;;;;;;;;;5112329;28;20056;-78
2022/06/27 01:43:05;;;;;;;5.80;4.82;;;;;;;;;;5112812;28;20032;-80
2022/06/27 01:45:32;;;;;;;5.55;5.05;;;;;;;;;;5112648;28;20027;-82
2022/06/27 01:47:58;;;;;;;8.02;5.13;;;;;;;;;;5112789;28;20105;-80
2022/06/27 01:50:25;;;;;;;6.35;5.57;;;;;;;;;;5112501;28;20035;-79
2022/06/27 01:52:52;;;;;;;6.85;4.72;;;;;;;;;;5112414;28;20030;-80
2022/06/27 01:55:24;;;;;;;7.15;4.50;;;;;;;;;;5112621;28;20020;-79
2022/06/27 01:57:51;;;;;;;7.15;5.13;;;;;;;;;;5112688;28;20028;-80
2022/06/27 02:00:17;;;;;;;6.38;4.60;;;;;;;;;;5112498;28;20536;-80
2022/06/27 02:02:44;;;;;;;6.30;4.97;;;;;;;;;;5112464;28;20102;-80
2022/06/27 02:05:11;;;;;;;5.07;4.60;;;;;;;;;;5116770;28;20016;-82
2022/06/27 02:07:38;;;;;;;7.22;5.35;;;;;;;;;;5116508;28;20115;-82
2022/06/27 02:10:04;;;;;;;6.13;5.18;;;;;;;;;;5116609;28;20106;-79
2022/06/27 02:12:31;;;;;;;7.32;5.40;;;;;;;;;;5116390;28;20039;-80
2022/06/27 02:14:57;;;;;;;8.75;5.82;;;;;;;;;;5116716;28;20107;-81
2022/06/27 02:17:23;;;;;;;6.90;5.55;;;;;;;;;;5116439;28;20034;-79
2022/06/27 02:19:50;;;;;;;6.38;5.22;;;;;;;;;;5116360;28;20027;-80
2022/06/27 02:22:16;;;;;;;8.63;5.70;;;;;;;;;;5116372;28;20055;-81
2022/06/27 02:24:43;;;;;;;7.75;5.70;;;;;;;;;;5097973;28;20055;-81
2022/06/27 02:27:09;;;;;;;6.13;5.00;;;;;;;;;;5116361;28;20063;-83
2022/06/27 02:29:36;;;;;;;12.30;5.90;;;;;;;;;;5116138;28;20024;-78
2022/06/27 02:32:02;;;;;;;8.70;4.90;;;;;;;;;;5116280;28;20031;-79
2022/06/27 02:34:29;;;;;;;6.18;5.20;;;;;;;;;;5116098;28;20066;-82
2022/06/27 02:36:56;;;;;;;7.00;5.28;;;;;;;;;;5097730;28;20023;-82
2022/06/27 02:39:26;;;;;;;7.13;4.95;;;;;;;;;;5116021;28;20027;-80
2022/06/27 02:44:42;;;;;;;7.18;5.03;;;;;;;;;;5116118;28;20101;-81
2022/06/27 02:47:08;;;;;;;6.80;5.72;;;;;;;;;;5115784;28;20031;-79
2022/06/27 02:49:34;;;;;;;9.18;5.40;;;;;;;;;;5115822;28;20084;-82
2022/06/27 02:52:06;;;;;;;10.95;5.85;;;;;;;;;;5115903;28;20027;-79
2022/06/27 02:54:47;;;;;;;7.07;5.75;;;;;;;;;;5115836;28;20024;-81
2022/06/27 02:57:26;;;;;;;6.53;5.88;;;;;;;;;;5115454;28;20032;-82
2022/06/27 02:59:54;;;;;;;6.82;5.50;;;;;;;;;;5115426;28;20374;-81
2022/06/27 03:02:20;;;;;;;9.52;6.30;;;;;;;;;;5115620;28;20459;-82
2022/06/27 03:04:46;;;;;;;9.85;6.30;;;;;;;;;;5115670;28;20027;-80
2022/06/27 03:07:13;;;;;;;5.50;4.97;;;;;;;;;;5115305;28;20027;-81
2022/06/27 03:09:39;;;;;;;8.45;5.72;;;;;;;;;;5115498;28;20494;-78
2022/06/27 03:12:06;;;;;;;12.30;5.65;;;;;;;;;;5115090;28;20470;-81
2022/06/27 03:14:32;;;;;;;8.93;5.10;;;;;;;;;;5114889;28;20031;-81
2022/06/27 03:16:58;;;;;;;8.02;5.22;;;;;;;;;;5114845;28;20024;-79
2022/06/27 03:19:26;;;;;;;8.18;4.90;;;;;;;;;;5115233;28;20077;-79
2022/06/27 03:21:53;;;;;;;7.57;5.13;;;;;;;;;;5115150;28;20032;-80
2022/06/27 03:24:20;;;;;;;5.70;5.20;;;;;;;;;;5115262;28;20102;-80
2022/06/27 03:26:46;;;;;;;6.75;5.72;;;;;;;;;;5115137;28;20024;-79
2022/06/27 03:29:12;;;;;;;7.32;5.32;;;;;;;;;;5114836;28;20066;-82
2022/06/27 03:31:38;;;;;;;6.00;5.20;;;;;;;;;;5115121;28;20035;-78
2022/06/27 03:34:04;;;;;;;7.78;5.32;;;;;;;;;;5114833;28;20039;-82
2022/06/27 03:36:30;;;;;;;6.72;5.25;;;;;;;;;;5115074;28;20069;-79
2022/06/27 03:38:56;;;;;;;8.20;5.93;;;;;;;;;;5096525;28;20027;-79
2022/06/27 03:41:22;;;;;;;7.18;5.55;;;;;;;;;;5114478;28;20051;-78
2022/06/27 03:43:49;;;;;;;7.07;5.65;;;;;;;;;;5114957;28;20026;-82
2022/06/27 03:46:15;;;;;;;8.15;5.75;;;;;;;;;;5114486;28;20027;-80
2022/06/27 03:51:26;;;;;;;7.00;4.95;;;;;;;;;;5114628;28;20063;-78
2022/06/27 03:53:52;;;;;;;7.15;5.10;;;;;;;;;;5114350;28;20102;-82
2022/06/27 03:56:19;;;;;;;8.70;5.43;;;;;;;;;;5114663;28;20480;-82
2022/06/27 03:58:46;;;;;;;7.85;5.22;;;;;;;;;;5114428;28;20050;-81
2022/06/27 04:01:12;;;;;;;6.63;5.20;;;;;;;;;;5114382;28;20031;-80
2022/06/27 04:03:38;;;;;;;6.28;5.32;;;;;;;;;;5114128;28;20031;-80
2022/06/27 04:06:04;;;;;;;7.18;5.18;;;;;;;;;;5114567;28;20371;-84
2022/06/27 04:08:30;;;;;;;11.70;6.82;;;;;;;;;;5115056;28;20039;-84
2022/06/27 04:10:56;;;;;;;11.95;7.07;;;;;;;;;;5096001;28;20028;-85
2022/06/27 04:13:22;;;;;;;11.05;7.95;;;;;;;;;;5096282;28;20118;-82
2022/06/27 04:15:48;;;;;;;15.98;8.27;;;;;;;;;;5114646;28;20084;-85
2022/06/27 04:18:15;;;;;;;13.55;9.18;;;;;;;;;;5114422;28;20081;-85
2022/06/27 04:20:42;;;;;;;17.42;9.73;;;;;;;;;;5114582;28;20051;-85
2022/06/27 04:23:08;;;;;;;16.13;9.13;;;;;;;;;;5114038;28;20040;-88
2022/06/27 04:25:34;;;;;;;12.00;8.75;;;;;;;;;;5114430;28;20031;-83
2022/06/27 04:28:01;;;;;;;12.43;7.50;;;;;;;;;;5096047;28;20019;-84
2022/06/27 04:30:27;;;;;;;10.15;8.02;;;;;;;;;;5096048;28;20053;-84
2022/06/27 04:32:53;;;;;;;10.60;7.65;;;;;;;;;;5113964;28;20401;-83
2022/06/27 04:35:20;;;;;;;9.98;7.43;;;;;;;;;;5114032;28;20027;-80
2022/06/27 04:37:47;;;;;;;10.20;6.75;;;;;;;;;;5113977;28;20106;-83
2022/06/27 04:40:14;;;;;;;10.27;7.03;;;;;;;;;;5113623;28;20068;-83
2022/06/27 04:42:43;;;;;;;9.38;6.40;;;;;;;;;;5113961;28;20579;-82
2022/06/27 04:45:09;;;;;;;12.55;6.80;;;;;;;;;;5113623;28;20020;-82
2022/06/27 04:47:38;;;;;;;9.88;7.07;;;;;;;;;;5113777;28;20084;-87
2022/06/27 04:50:05;;;;;;;9.43;6.00;;;;;;;;;;5113530;28;20027;-79
2022/06/27 04:52:32;;;;;;;9.30;6.13;;;;;;;;;;5113559;28;20036;-87
2022/06/27 04:54:59;;;;;;;8.10;6.05;;;;;;;;;;5113798;28;20045;-81
2022/06/27 04:57:25;;;;;;;9.02;5.82;;;;;;;;;;5113464;28;20062;-85
2022/06/27 04:59:51;;;;;;;9.55;5.63;;;;;;;;;;5113570;28;20023;-88
2022/06/27 05:02:18;;;;;;;8.80;5.50;;;;;;;;;;5113254;28;20023;-79
2022/06/27 05:04:44;;;;;;;9.30;5.80;;;;;;;;;;5113320;28;20038;-84
2022/06/27 05:07:11;;;;;;;7.70;5.13;;;;;;;;;;5113159;28;20103;-80
2022/06/27 05:09:37;;;;;;;8.25;5.40;;;;;;;;;;5112851;28;20080;-79
2022/06/27 05:12:03;;;;;;;7.88;5.95;;;;;;;;;;5112954;28;20040;-77
2022/06/27 05:14:29;;;;;;;8.30;6.07;;;;;;;;;;5112301;28;20031;-87
2022/06/27 05:16:55;;;;;;;9.80;6.55;;;;;;;;;;5094813;28;20592;-79
2022/06/27 05:19:21;;;;;;;10.55;5.68;;;;;;;;;;5112696;28;20024;-79
2022/06/27 05:21:47;;;;;;;8.02;5.55;;;;;;;;;;5111416;28;20028;-79
2022/06/27 05:24:14;;;;;;;9.10;5.18;;;;;;;;;;5090950;28;20515;-83
2022/06/27 05:26:41;;;;;;;6.60;4.40;;;;;;;;;;5107504;28;20016;-85
2022/06/27 05:29:07;;;;;;;6.55;4.85;;;;;;;;;;5108890;28;20027;-82
2022/06/27 05:31:33;;;;;;;3.60;3.28;;;;;;;;;;5109955;28;20112;-82
2022/06/27 05:34:02;;;;;;;5.25;3.33;;;;;;;;;;5093111;28;20470;-86
2022/06/27 05:36:29;;;;;;;8.45;4.63;;;;;;;;;;5107310;28;20032;-92
2022/06/27 05:38:55;;;;;;;5.32;3.35;;;;;;;;;;5111440;28;20058;-85
2022/06/27 05:41:21;;;;;;;6.75;4.07;;;;;;;;;;5109010;28;20051;-88
2022/06/27 05:43:47;;;;;;;6.00;3.80;;;;;;;;;;5106975;28;20035;-84
2022/06/27 05:46:15;;;;;;;7.60;4.10;;;;;;;;;;5111258;28;20463;-85
2022/06/27 05:48:41;;;;;;;7.60;5.00;;;;;;;;;;5103904;28;20391;-82
2022/06/27 05:51:08;;;;;;;73.22;11.30;;;;;;;;;;5091287;28;20565;-85
2022/06/27 05:53:34;;;;;;;8.73;4.20;;;;;;;;;;5111626;28;20371;-86
2022/06/27 05:56:02;;;;;;;9.43;4.43;;;;;;;;;;5111398;28;20103;-82
2022/06/27 05:58:28;;;;;;;9.93;5.97;;;;;;;;;;5107245;28;20032;-86
2022/06/27 06:00:54;;;;;;;6.20;4.25;;;;;;;;;;5087203;28;20030;-81
2022/06/27 06:03:21;;;;;;;39.72;16.55;;;;;;;;;;5104288;28;20051;-85
2022/06/27 06:05:48;;;;;;;71.22;30.75;;;;;;;;;;5104301;28;20050;-84
2022/06/27 06:08:17;;;;;;;15.25;8.32;;;;;;;;;;5089568;28;20028;-84
2022/06/27 06:10:52;;;;;;;20.77;9.95;;;;;;;;;;5089172;28;20078;-81
2022/06/27 06:13:18;;;;;;;7.80;4.82;;;;;;;;;;5108636;28;20089;-84
2022/06/27 06:15:45;;;;;;;48.63;20.23;;;;;;;;;;5110786;28;20036;-82
2022/06/27 06:18:23;;;;;;;19.83;10.52;;;;;;;;;;5092507;28;20122;-82
2022/06/27 06:20:50;;;;;;;12.32;5.93;;;;;;;;;;5092113;28;20079;-83
2022/06/27 06:23:18;;;;;;;14.10;7.45;;;;;;;;;;5109653;28;20484;-82
2022/06/27 06:25:45;;;;;;;11.73;10.65;;;;;;;;;;5088311;28;20032;-80
2022/06/27 06:28:11;;;;;;;29.73;17.15;;;;;;;;;;5109297;28;20059;-81
2022/06/27 06:30:37;;;;;;;78.50;32.60;;;;;;;;;;5091759;28;20549;-81
2022/06/27 06:33:05;;;;;;;40.22;27.15;;;;;;;;;;5108538;28;20027;-84
2022/06/27 06:35:32;;;;;;;5.50;4.18;;;;;;;;;;5109667;28;20043;-82
2022/06/27 06:37:58;;;;;;;5.28;3.95;;;;;;;;;;5108556;28;20161;-84
2022/06/27 06:40:25;;;;;;;9.77;6.95;;;;;;;;;;5095924;28;20048;-83
2022/06/27 06:42:51;;;;;;;9.10;6.55;;;;;;;;;;5104883;28;20028;-82
2022/06/27 06:45:18;;;;;;;6.05;4.20;;;;;;;;;;5105662;28;20024;-86
2022/06/27 06:47:48;;;;;;;4.32;3.53;;;;;;;;;;5087748;28;20031;-85
2022/06/27 06:50:18;;;;;;;12.38;11.10;;;;;;;;;;5111225;28;20031;-82
2022/06/27 06:52:46;;;;;;;7.68;5.45;;;;;;;;;;5086799;28;20177;-86
2022/06/27 06:58:01;;;;;;;5.90;3.65;;;;;;;;;;5100286;28;20039;-83
2022/06/27 07:00:28;;;;;;;5.05;3.83;;;;;;;;;;5095031;28;20031;-84
2022/06/27 07:02:55;;;;;;;5.32;4.22;;;;;;;;;;5114394;28;20035;-86
2022/06/27 07:05:22;;;;;;;4.07;3.67;;;;;;;;;;5114423;28;20128;-88
2022/06/27 07:07:54;;;;;;;6.30;5.22;;;;;;;;;;5114214;28;20038;-87
2022/06/27 07:10:22;;;;;;;8.85;7.88;;;;;;;;;;5113360;27;20474;-86
2022/06/27 07:12:51;;;;;;;6.57;5.25;;;;;;;;;;5111828;28;20039;-84
2022/06/27 07:15:30;;;;;;;4.20;3.35;;;;;;;;;;5114201;28;20067;-84
2022/06/27 07:17:56;;;;;;;4.47;3.70;;;;;;;;;;5114003;28;20158;-87
2022/06/27 07:20:24;;;;;;;3.25;2.88;;;;;;;;;;5094713;28;20157;-81
2022/06/27 07:22:51;;;;;;;6.03;3.30;;;;;;;;;;5091785;28;20063;-83
2022/06/27 07:25:17;;;;;;;4.47;3.33;;;;;;;;;;5113470;28;20035;-86
2022/06/27 07:27:45;;;;;;;7.20;5.10;;;;;;;;;;5113883;28;20576;-86
2022/06/27 07:30:13;;;;;;;4.22;3.83;;;;;;;;;;5085829;28;20039;-84
2022/06/27 07:32:39;;;;;;;3.42;3.10;;;;;;;;;;5112080;27;20046;-81
2022/06/27 07:35:09;;;;;;;4.85;2.90;;;;;;;;;;5113744;28;20028;-83
2022/06/27 07:37:39;;;;;;;2.72;2.30;;;;;;;;;;5113315;28;20480;-84
2022/06/27 07:40:06;;;;;;;5.00;3.63;;;;;;;;;;5112983;28;20069;-83
2022/06/27 07:42:35;;;;;;;4.70;2.65;;;;;;;;;;5112169;27;20027;-84
2022/06/27 07:45:01;;;;;;;3.00;2.70;;;;;;;;;;5094609;28;20119;-84
2022/06/27 07:53:12;;;;;;;4.40;2.90;;;;;;;;;;5092008;28;20046;-83
2022/06/27 07:55:40;;;;;;;4.28;2.83;;;;;;;;;;5092671;28;20035;-86
2022/06/27 07:58:07;;;;;;;3.25;2.50;;;;;;;;;;5074152;28;20044;-85
2022/06/27 08:00:33;;;;;;;8.88;3.97;;;;;;;;;;5078206;28;20028;-83
2022/06/27 08:03:36;;;;;;;218.23;91.82;;;;;;;;;;5101189;28;20466;-83
2022/06/27 08:05:47;;;;;;;70.18;34.53;;;;;;;;;;5108403;28;20035;-87
2022/06/27 08:08:13;;;;;;;118.28;51.25;;;;;;;;;;5111943;28;20570;-89
2022/06/27 08:10:39;;;;;;;15.70;8.02;;;;;;;;;;5094360;28;20493;-84
2022/06/27 08:13:06;;;;;;;42.22;18.30;;;;;;;;;;5113530;28;20036;-80
2022/06/27 08:15:32;;;;;;;31.35;13.98;;;;;;;;;;5112850;28;20118;-84
2022/06/27 08:18:00;;;;;;;41.47;19.52;;;;;;;;;;5092963;28;20031;-85
2022/06/27 08:20:26;;;;;;;17.83;8.80;;;;;;;;;;5112806;28;20031;-86
2022/06/27 08:22:56;;;;;;;9.07;4.85;;;;;;;;;;5094483;28;20019;-87
2022/06/27 08:25:22;;;;;;;11.75;5.63;;;;;;;;;;5112730;28;20036;-83
2022/06/27 08:27:51;;;;;;;8.45;3.95;;;;;;;;;;5103803;28;20027;-86
2022/06/27 08:30:17;;;;;;;14.52;4.82;;;;;;;;;;5098210;28;20039;-83
2022/06/27 08:32:44;;;;;;;8.13;2.60;;;;;;;;;;5112853;28;20040;-80
2022/06/27 08:35:11;;;;;;;2.65;2.10;;;;;;;;;;5112422;28;20028;-86
2022/06/27 08:37:38;;;;;;;14.05;7.32;;;;;;;;;;5089313;27;20056;-85
2022/06/27 08:40:06;;;;;;;78.13;32.55;;;;;;;;;;5111297;28;20027;-83
2022/06/27 08:42:32;;;;;;;136.68;55.13;;;;;;;;;;5093646;28;20497;-81
2022/06/27 08:45:01;;;;;;;156.48;61.90;;;;;;;;;;5112292;28;20035;-83
2022/06/27 08:47:30;;;;;;;58.60;24.52;;;;;;;;;;5111191;28;20023;-84
2022/06/27 08:49:56;;;;;;;69.05;29.35;;;;;;;;;;5076984;28;20042;-84
2022/06/27 08:52:24;;;;;;;54.10;24.65;;;;;;;;;;5092994;28;20040;-86
2022/06/27 08:54:56;;;;;;;84.22;35.95;;;;;;;;;;5109381;27;20482;-85
2022/06/27 08:57:45;;;;;;;12.18;5.07;;;;;;;;;;5111478;28;20035;-84
2022/06/27 09:00:23;;;;;;;13.60;5.13;;;;;;;;;;5111064;28;20027;-89
2022/06/27 09:02:49;;;;;;;29.80;12.68;;;;;;;;;;5112372;28;20485;-83
2022/06/27 09:05:26;;;;;;;10.68;5.90;;;;;;;;;;5110819;28;20111;-89
2022/06/27 09:07:55;;;;;;;13.02;9.65;;;;;;;;;;5108663;28;20497;-85
2022/06/27 09:10:35;;;;;;;5.80;3.80;;;;;;;;;;5111359;28;20035;-83
2022/06/27 09:13:06;;;;;;;6.03;3.40;;;;;;;;;;5092933;28;20039;-81
2022/06/27 09:15:38;;;;;;;4.38;3.00;;;;;;;;;;5107359;28;20529;-81
2022/06/27 09:18:06;;;;;;;10.27;5.10;;;;;;;;;;5110224;28;20024;-83
2022/06/27 09:20:51;;;;;;;5.30;2.95;;;;;;;;;;5111681;28;20024;-85
2022/06/27 09:23:37;;;;;;;2.30;1.67;;;;;;;;;;5111506;28;20059;-83
2022/06/27 09:26:05;;;;;;;4.32;2.17;;;;;;;;;;5110580;28;20031;-85
2022/06/27 09:31:54;;;;;;;3.13;2.00;;;;;;;;;;5086999;28;20051;-84
2022/06/27 09:34:40;;;;;;;4.07;2.47;;;;;;;;;;5065379;28;20678;-83
2022/06/27 09:37:08;;;;;;;4.00;2.03;;;;;;;;;;5086635;28;20095;-84
2022/06/27 09:39:57;;;;;;;3.80;1.70;;;;;;;;;;5047433;28;20048;-83
2022/06/27 09:42:24;;;;;;;2.50;1.65;;;;;;;;;;5050725;28;20095;-89
2022/06/27 09:44:51;;;;;;;3.35;2.33;;;;;;;;;;5068103;28;20122;-84
2022/06/27 09:47:19;;;;;;;1.60;1.00;;;;;;;;;;5066861;28;20550;-83
2022/06/27 09:49:50;;;;;;;4.03;1.42;;;;;;;;;;5065594;28;20039;-83
2022/06/27 09:52:19;;;;;;;1.13;1.00;;;;;;;;;;5049501;28;20411;-79
2022/06/27 09:54:47;;;;;;;2.20;1.45;;;;;;;;;;5067219;28;20053;-82
2022/06/27 09:57:29;;;;;;;2.05;1.30;;;;;;;;;;5068467;28;20037;-86
2022/06/27 09:59:56;;;;;;;2.42;1.13;;;;;;;;;;5067225;28;20174;-83
2022/06/27 10:02:22;;;;;;;2.30;1.20;;;;;;;;;;5068234;28;20025;-85
2022/06/27 10:04:51;;;;;;;3.65;1.30;;;;;;;;;;5077094;28;20036;-85
2022/06/27 10:07:32;;;;;;;;;;;;;;;;;;;;;
2022/06/27 10:10:02;;;;;;;26.80;14.15;;;;;;;;;;5103675;28;20015;-83
2022/06/27 10:12:31;;;;;;;59.60;28.42;;;;;;;;;;5110801;28;20043;-85
2022/06/27 10:15:12;;;;;;;10.95;6.00;;;;;;;;;;5108910;28;20150;-90
2022/06/27 10:17:41;;;;;;;8.23;4.22;;;;;;;;;;5093319;28;20076;-84
2022/06/27 10:20:15;;;;;;;36.25;18.70;;;;;;;;;;5110318;28;20027;-85
2022/06/27 10:22:42;;;;;;;23.67;11.88;;;;;;;;;;5111057;28;20039;-83
2022/06/27 10:25:26;;;;;;;20.40;10.20;;;;;;;;;;5114150;28;20038;-86
2022/06/27 10:28:14;;;;;;;9.73;5.40;;;;;;;;;;5097388;28;20367;-85
2022/06/27 10:30:46;;;;;;;8.30;4.60;;;;;;;;;;5081914;28;20027;-82
2022/06/27 10:33:31;;;;;;;7.35;2.58;;;;;;;;;;5113372;28;20038;-84
2022/06/27 10:35:57;;;;;;;2.85;1.80;;;;;;;;;;5115474;28;20049;-83
2022/06/27 10:38:25;;;;;;;3.95;1.67;;;;;;;;;;5114988;28;20027;-88
2022/06/27 10:40:52;;;;;;;8.73;4.25;;;;;;;;;;5094996;28;20047;-84
2022/06/27 10:43:37;;;;;;;46.13;20.98;;;;;;;;;;5095155;28;20039;-82
2022/06/27 10:46:22;;;;;;;101.53;48.95;;;;;;;;;;5095086;28;20467;-84
2022/06/27 10:49:11;;;;;;;40.42;18.92;;;;;;;;;;5095447;27;20478;-81
2022/06/27 10:51:37;;;;;;;29.80;13.43;;;;;;;;;;5093951;28;20043;-81
2022/06/27 10:54:06;;;;;;;9.68;5.72;;;;;;;;;;5076691;28;20028;-81
2022/06/27 10:56:37;;;;;;;7.22;3.20;;;;;;;;;;5094584;28;20035;-82
2022/06/27 10:59:07;;;;;;;38.53;16.95;;;;;;;;;;5099341;27;20066;-82
2022/06/27 11:01:34;;;;;;;45.30;20.77;;;;;;;;;;5115028;28;20035;-80
2022/06/27 11:04:00;;;;;;;120.13;50.20;;;;;;;;;;5114331;28;20031;-83
2022/06/27 11:06:27;;;;;;;67.38;28.95;;;;;;;;;;5114871;28;20023;-81
2022/06/27 11:08:54;;;;;;;64.40;26.92;;;;;;;;;;5111351;27;20019;-79
2022/06/27 11:11:30;;;;;;;29.15;17.98;;;;;;;;;;5112909;28;20031;-81
2022/06/27 11:13:57;;;;;;;3.95;2.42;;;;;;;;;;5108809;28;20019;-83
2022/06/27 11:16:26;;;;;;;5.13;2.55;;;;;;;;;;5114198;28;20536;-82
2022/06/27 11:18:53;;;;;;;3.80;2.30;;;;;;;;;;5112840;28;20027;-82
2022/06/27 11:21:21;;;;;;;15.80;7.65;;;;;;;;;;5113852;28;20494;-82
2022/06/27 11:24:05;;;;;;;6.38;3.85;;;;;;;;;;5114092;28;20031;-82
2022/06/27 11:26:32;;;;;;;8.38;4.45;;;;;;;;;;5109310;28;20028;-80
2022/06/27 11:32:02;;;;;;;4.45;1.67;;;;;;;;;;5113610;28;20082;-81
2022/06/27 11:34:36;;;;;;;4.28;2.38;;;;;;;;;;5111034;28;20023;-86
2022/06/27 11:37:11;;;;;;;4.03;2.10;;;;;;;;;;5094310;28;20505;-81
2022/06/27 11:39:40;;;;;;;45.92;19.73;;;;;;;;;;5095725;28;20059;-82
2022/06/27 11:42:10;;;;;;;107.72;41.85;;;;;;;;;;5112590;28;20036;-82
2022/06/27 11:44:56;;;;;;;73.85;30.77;;;;;;;;;;5108808;28;20043;-82
2022/06/27 11:47:26;;;;;;;40.05;16.80;;;;;;;;;;5108462;28;20020;-80
2022/06/27 11:50:00;;;;;;;6.55;3.30;;;;;;;;;;5113747;28;20027;-83
2022/06/27 11:52:41;;;;;;;15.57;5.63;;;;;;;;;;5113681;28;20030;-83
2022/06/27 11:55:26;;;;;;;5.50;4.15;;;;;;;;;;5091095;28;20092;-78
2022/06/27 11:57:55;;;;;;;10.15;4.80;;;;;;;;;;5086250;28;20024;-84
2022/06/27 12:00:26;;;;;;;24.17;10.20;;;;;;;;;;5113678;28;20023;-80
2022/06/27 12:02:55;;;;;;;6.75;3.50;;;;;;;;;;5112914;28;20018;-82
2022/06/27 12:05:22;;;;;;;33.40;20.90;;;;;;;;;;5105279;28;20051;-82
2022/06/27 12:07:56;;;;;;;36.33;18.40;;;;;;;;;;5113726;28;20020;-81
2022/06/27 12:10:41;;;;;;;6.13;2.83;;;;;;;;;;5107846;28;20108;-80
2022/06/27 12:13:15;;;;;;;7.93;2.13;;;;;;;;;;5109230;28;20035;-81
2022/06/27 12:15:43;;;;;;;5.22;2.67;;;;;;;;;;5114091;28;20024;-80
2022/06/27 12:18:12;;;;;;;5.60;2.50;;;;;;;;;;5113594;28;20085;-83
2022/06/27 12:20:38;;;;;;;20.08;16.17;;;;;;;;;;5096366;28;20030;-83
2022/06/27 12:23:05;;;;;;;5.32;3.70;;;;;;;;;;5113472;28;20027;-82
2022/06/27 12:25:35;;;;;;;6.78;3.75;;;;;;;;;;5107100;28;20186;-82
2022/06/27 12:28:01;;;;;;;4.05;2.33;;;;;;;;;;5093455;28;20032;-77
2022/06/27 12:30:27;;;;;;;6.53;2.13;;;;;;;;;;5104084;28;20417;-80
2022/06/27 12:32:54;;;;;;;6.90;3.95;;;;;;;;;;5113395;28;20032;-81
2022/06/27 12:35:20;;;;;;;16.05;7.20;;;;;;;;;;5113018;28;20027;-81
2022/06/27 12:37:46;;;;;;;41.25;17.38;;;;;;;;;;5095127;28;20047;-83
2022/06/27 12:40:15;;;;;;;18.33;7.53;;;;;;;;;;5094769;28;20134;-83
2022/06/27 12:42:42;;;;;;;25.30;10.52;;;;;;;;;;5094931;28;20543;-82
2022/06/27 12:45:08;;;;;;;6.22;3.35;;;;;;;;;;5094994;28;20028;-80
2022/06/27 12:47:34;;;;;;;3.75;2.13;;;;;;;;;;5112588;28;20493;-82
2022/06/27 12:50:03;;;;;;;17.55;7.72;;;;;;;;;;5112963;28;20099;-82
2022/06/27 12:52:30;;;;;;;2.95;1.55;;;;;;;;;;5113846;28;20095;-82
2022/06/27 12:54:56;;;;;;;10.40;4.55;;;;;;;;;;5093123;28;20127;-79
2022/06/27 12:57:22;;;;;;;6.68;3.13;;;;;;;;;;5099867;28;20028;-80
2022/06/27 12:59:48;;;;;;;5.10;2.22;;;;;;;;;;5108954;28;20110;-81
2022/06/27 13:02:16;;;;;;;4.55;3.70;;;;;;;;;;5110231;28;20027;-83
2022/06/27 13:04:42;;;;;;;5.78;3.53;;;;;;;;;;5092562;28;20999;-84
2022/06/27 13:07:08;;;;;;;15.45;9.20;;;;;;;;;;5095306;28;20024;-84
2022/06/27 13:09:34;;;;;;;12.00;6.50;;;;;;;;;;5108240;28;20020;-85
2022/06/27 13:12:03;;;;;;;8.65;3.45;;;;;;;;;;5090581;28;20039;-82
2022/06/27 13:14:29;;;;;;;6.72;2.78;;;;;;;;;;5113178;28;20019;-82
2022/06/27 13:16:57;;;;;;;10.48;4.80;;;;;;;;;;5113182;28;20049;-74
2022/06/27 13:19:24;;;;;;;5.13;2.58;;;;;;;;;;5113248;28;20378;-80
2022/06/27 13:21:52;;;;;;;4.30;1.02;;;;;;;;;;5093070;28;20133;-78
2022/06/27 13:24:19;;;;;;;1.67;0.85;;;;;;;;;;5088251;28;20053;-78
2022/06/27 13:26:45;;;;;;;5.10;1.10;;;;;;;;;;5110225;28;20031;-81
2022/06/27 13:29:12;;;;;;;2.22;2.03;;;;;;;;;;5108897;28;20023;-79
2022/06/27 13:31:38;;;;;;;3.35;1.10;;;;;;;;;;5107464;28;20452;-80
2022/06/27 13:34:05;;;;;;;2.92;1.00;;;;;;;;;;5100736;28;20028;-81
2022/06/27 13:36:31;;;;;;;3.53;0.90;;;;;;;;;;5092403;28;20028;-81
2022/06/27 13:38:57;;;;;;;1.13;1.00;;;;;;;;;;5092332;28;20020;-81
2022/06/27 13:41:23;;;;;;;3.35;1.10;;;;;;;;;;5097098;28;20048;-80
2022/06/27 13:43:50;;;;;;;2.75;1.10;;;;;;;;;;5107287;28;20020;-81
2022/06/27 13:46:16;;;;;;;3.13;1.10;;;;;;;;;;5112854;28;20024;-76
2022/06/27 13:48:42;;;;;;;1.38;1.00;;;;;;;;;;5109034;28;20386;-83
2022/06/27 13:51:08;;;;;;;1.77;1.02;;;;;;;;;;5107727;28;20039;-79
2022/06/27 13:53:35;;;;;;;2.58;1.35;;;;;;;;;;5111829;28;20426;-80
2022/06/27 13:56:02;;;;;;;1.75;0.88;;;;;;;;;;5112285;28;20049;-78
2022/06/27 13:58:28;;;;;;;1.58;1.13;;;;;;;;;;5112443;28;20099;-81
2022/06/27 14:00:54;;;;;;;2.25;1.00;;;;;;;;;;5116275;28;20026;-81
2022/06/27 14:03:20;;;;;;;2.17;1.00;;;;;;;;;;5116905;28;20073;-80
2022/06/27 14:05:46;;;;;;;3.13;1.98;;;;;;;;;;5116904;28;20378;-81
2022/06/27 14:08:13;;;;;;;1.45;1.00;;;;;;;;;;5116420;28;20486;-78
2022/06/27 14:10:54;;;;;;;1.20;0.90;;;;;;;;;;5116599;28;20028;-80
2022/06/27 14:13:40;;;;;;;1.55;0.80;;;;;;;;;;5116574;28;20481;-80
2022/06/27 14:16:07;;;;;;;1.55;0.90;;;;;;;;;;5113943;28;20020;-79
2022/06/27 14:18:33;;;;;;;2.00;0.80;;;;;;;;;;5106084;28;20055;-82
2022/06/27 14:20:59;;;;;;;2.63;0.88;;;;;;;;;;5101209;28;20439;-80
2022/06/27 14:23:26;;;;;;;1.35;0.85;;;;;;;;;;5116317;28;20485;-78
2022/06/27 14:25:52;;;;;;;2.78;1.15;;;;;;;;;;5115163;28;20106;-80
2022/06/27 14:28:18;;;;;;;2.42;0.85;;;;;;;;;;5115223;28;20085;-81
2022/06/27 14:30:44;;;;;;;2.80;1.08;;;;;;;;;;5115069;28;20034;-79
2022/06/27 14:33:10;;;;;;;2.97;0.95;;;;;;;;;;5109210;28;20036;-77
2022/06/27 14:35:36;;;;;;;1.58;0.80;;;;;;;;;;5114811;28;20015;-80
2022/06/27 14:38:02;;;;;;;2.50;1.55;;;;;;;;;;5107924;28;20073;-81
2022/06/27 14:40:28;;;;;;;3.38;1.35;;;;;;;;;;5095427;28;20048;-79
2022/06/27 14:42:54;;;;;;;2.47;1.50;;;;;;;;;;5095349;28;20085;-80
2022/06/27 14:45:20;;;;;;;5.10;4.10;;;;;;;;;;5095364;28;20028;-79
2022/06/27 14:47:48;;;;;;;2.72;1.10;;;;;;;;;;5094904;28;20024;-79
2022/06/27 14:50:14;;;;;;;1.95;1.30;;;;;;;;;;5095606;28;20028;-79
2022/06/27 14:52:40;;;;;;;2.90;0.90;;;;;;;;;;5109370;28;20042;-85
2022/06/27 14:55:07;;;;;;;1.50;0.98;;;;;;;;;;5097481;28;20046;-81
2022/06/27 14:57:33;;;;;;;1.52;0.95;;;;;;;;;;5115552;28;20023;-82
2022/06/27 14:59:59;;;;;;;2.95;1.00;;;;;;;;;;5108433;28;20112;-81
2022/06/27 15:02:25;;;;;;;2.25;1.13;;;;;;;;;;5104305;28;20027;-79
2022/06/27 15:04:53;;;;;;;3.08;1.10;;;;;;;;;;5109490;28;20063;-81